Time;durP1;ratioP1;P1;durP2;ratioP2;P2;SDS_P1;SDS_P2;PMS_P1;PMS_P2;Temp;Humidity;BMP_temperature;BMP_pressure;BME280_temperature;BME280_humidity;BME280_pressure;Samples;Min_cycle;Max_cycle;Signal;HPM_P1;HPM_P2
2021/07/15 00:06:21;;;;;;;1999.90;999.90;;;;;;;20.85;75.33;100666.34;15747806;28;20044;-62
2021/07/15 00:14:17;;;;;;;1999.90;999.90;;;;;;;20.86;75.23;100670.00;15729842;28;20562;-63
2021/07/15 00:22:00;;;;;;;1999.90;999.90;;;;;;;20.73;75.33;100673.19;15718087;28;20284;-63
2021/07/15 00:29:53;;;;;;;1999.90;999.90;;;;;;;20.72;74.77;100671.59;15730846;28;20041;-62
2021/07/15 00:37:52;;;;;;;1999.90;999.90;;;;;;;20.49;76.00;100670.34;15728072;28;20040;-63
2021/07/15 00:45:48;;;;;;;;;;;;;;;20.43;76.00;100673.59;15744970;28;20421;-61
2021/07/15 00:53:50;;;;;;;1999.90;999.90;;;;;;;20.26;76.10;100674.31;15744177;28;19986;-61
2021/07/15 01:01:51;;;;;;;1999.90;999.90;;;;;;;20.20;76.13;100692.91;15725391;28;20048;-62
2021/07/15 01:09:27;;;;;;;1999.90;999.90;;;;;;;20.10;75.48;100699.31;15744125;28;20052;-62
2021/07/15 01:17:05;;;;;;;1999.90;999.90;;;;;;;19.94;76.66;100707.38;15736129;28;20052;-63
2021/07/15 01:25:17;;;;;;;1999.90;999.90;;;;;;;19.87;77.87;100714.59;15742978;28;20477;-63
2021/07/15 01:33:01;;;;;;;1999.90;999.90;;;;;;;19.72;77.09;100697.94;15691864;28;20052;-63
2021/07/15 01:40:40;;;;;;;1999.90;999.90;;;;;;;19.80;77.07;100668.44;15702499;28;20075;-63
2021/07/15 01:48:15;;;;;;;1999.90;999.90;;;;;;;19.86;77.16;100673.34;15723777;28;20036;-62
2021/07/15 01:55:47;;;;;;;1999.90;999.90;;;;;;;19.79;77.72;100666.81;15722929;28;20115;-64
2021/07/15 02:03:22;;;;;;;1999.90;999.90;;;;;;;19.69;77.77;100667.56;15705897;28;20036;-63
2021/07/15 02:10:55;;;;;;;1999.90;999.90;;;;;;;19.77;77.75;100650.25;15740444;28;20456;-63
2021/07/15 02:18:29;;;;;;;1999.90;999.90;;;;;;;19.89;77.26;100649.88;15722287;28;20040;-64
2021/07/15 02:26:03;;;;;;;1999.90;999.90;;;;;;;19.78;77.45;100663.19;15740462;28;20044;-64
2021/07/15 02:33:42;;;;;;;1999.90;999.90;;;;;;;19.70;77.21;100664.38;15722370;28;20043;-63
2021/07/15 02:41:15;;;;;;;1999.90;999.90;;;;;;;19.63;76.59;100660.69;15740381;28;20052;-62
2021/07/15 02:48:50;;;;;;;1999.90;999.90;;;;;;;19.40;76.78;100687.22;15722770;28;20086;-63
2021/07/15 02:56:25;;;;;;;1999.90;999.90;;;;;;;19.52;77.03;100692.53;15739919;28;20044;-64
2021/07/15 03:04:09;;;;;;;1999.90;999.90;;;;;;;19.45;77.44;100706.63;15722095;28;20045;-63
2021/07/15 03:11:46;;;;;;;1999.90;999.90;;;;;;;19.49;77.23;100721.63;15740765;28;20048;-60
2021/07/15 03:19:20;;;;;;;1999.90;999.90;;;;;;;19.30;77.96;100714.22;15751203;28;20102;-64
2021/07/15 03:26:57;;;;;;;1999.90;999.90;;;;;;;19.45;77.35;100705.81;15751835;28;20125;-63
2021/07/15 03:34:32;;;;;;;1999.90;999.90;;;;;;;19.50;77.19;100697.78;15732471;28;20048;-63
2021/07/15 03:42:05;;;;;;;1999.90;999.90;;;;;;;19.49;77.54;100706.69;15732508;28;20072;-63
2021/07/15 03:49:39;;;;;;;1999.90;999.90;;;;;;;19.56;77.94;100699.06;15714661;28;20048;-63
2021/07/15 03:57:17;;;;;;;1999.90;999.90;;;;;;;19.74;77.54;100687.03;15712953;28;20043;-64
2021/07/15 04:04:53;;;;;;;1999.90;999.90;;;;;;;19.89;77.73;100681.03;15729933;28;20131;-63
2021/07/15 04:12:27;;;;;;;1999.90;999.90;;;;;;;19.81;78.16;100693.56;15748577;28;20040;-63
2021/07/15 04:20:05;;;;;;;1999.90;999.90;;;;;;;20.01;78.30;100685.56;15687275;28;20048;-63
2021/07/15 04:27:39;;;;;;;1999.90;999.90;;;;;;;20.27;77.39;100701.44;15745450;28;20067;-63
2021/07/15 04:35:17;;;;;;;1999.90;999.90;;;;;;;20.43;77.62;100727.44;15728356;28;20106;-63
2021/07/15 04:42:53;;;;;;;1999.90;999.90;;;;;;;20.66;78.00;100703.59;15745241;28;20064;-63
2021/07/15 04:50:34;;;;;;;1999.90;999.90;;;;;;;20.88;77.39;100719.41;15761162;28;20037;-62
2021/07/15 04:58:11;;;;;;;1999.90;999.90;;;;;;;21.16;76.51;100732.00;15749781;28;20106;-62
2021/07/15 05:05:46;;;;;;;1999.90;999.90;;;;;;;21.29;75.10;100753.94;15687160;28;20044;-63
2021/07/15 05:13:25;;;;;;;1999.90;999.90;;;;;;;21.41;74.99;100751.91;15725889;28;20083;-62
2021/07/15 05:21:05;;;;;;;1999.90;999.90;;;;;;;21.48;74.79;100758.38;15735510;28;20087;-62
2021/07/15 05:28:38;;;;;;;1999.90;999.90;;;;;;;21.75;73.88;100753.06;15737823;28;20056;-62
2021/07/15 05:36:14;;;;;;;1999.90;999.90;;;;;;;21.74;74.47;100759.97;15731448;28;20048;-60
2021/07/15 05:43:52;;;;;;;1999.90;999.90;;;;;;;22.10;71.81;100772.09;15742011;28;20657;-61
2021/07/15 05:51:49;;;;;;;1999.90;999.90;;;;;;;22.48;70.32;100750.41;15740789;28;20044;-60
2021/07/15 05:59:22;;;;;;;1999.90;999.90;;;;;;;22.72;69.57;100745.81;15769768;28;20055;-63
2021/07/15 06:15:48;;;;;;;1999.90;999.90;;;;;;;23.37;67.09;100745.38;15791527;28;20044;-62
2021/07/15 06:23:45;;;;;;;1999.90;999.90;;;;;;;23.35;67.12;100750.69;15803343;28;20048;-61
2021/07/15 06:31:17;;;;;;;1999.90;999.90;;;;;;;23.23;67.40;100771.91;15801503;28;20048;-62
2021/07/15 06:47:04;;;;;;;1999.90;999.90;;;;;;;23.36;67.53;100784.41;15801275;28;20531;-62
2021/07/15 06:54:48;;;;;;;1999.90;999.90;;;;;;;23.84;65.15;100784.41;15762092;28;20603;-62
2021/07/15 07:02:24;;;;;;;1999.90;999.90;;;;;;;24.38;64.38;100784.63;15722204;28;20469;-62
2021/07/15 07:10:03;;;;;;;;;;;;;;;24.38;63.65;100789.53;15740743;28;20036;-62
2021/07/15 07:17:51;;;;;;;;;;;;;;;24.71;62.32;100790.75;15722833;28;19974;-59
2021/07/15 07:26:03;;;;;;;1999.90;999.90;;;;;;;24.75;61.07;100794.34;15739142;28;19927;-63
2021/07/15 07:33:48;;;;;;;1999.90;999.90;;;;;;;25.06;62.22;100788.66;15717497;28;20045;-62
2021/07/15 07:41:25;;;;;;;1999.90;999.90;;;;;;;24.81;60.52;100794.69;15739141;28;20131;-62
2021/07/15 07:49:01;;;;;;;1999.90;999.90;;;;;;;25.56;60.38;100783.75;15738040;28;20079;-62
2021/07/15 07:57:13;;;;;;;1999.90;999.90;;;;;;;27.04;57.49;100789.00;15719590;28;20508;-63
2021/07/15 08:04:47;;;;;;;1999.90;999.90;;;;;;;27.50;54.67;100787.88;15748552;28;20044;-62
2021/07/15 08:12:33;;;;;;;1999.90;999.90;;;;;;;27.73;52.60;100781.19;15730073;28;20040;-62
2021/07/15 08:20:11;;;;;;;1999.90;999.90;;;;;;;27.73;50.94;100781.19;15729739;28;20514;-63
2021/07/15 08:28:25;;;;;;;1999.90;999.90;;;;;;;28.19;51.73;100785.63;15747076;28;20051;-61
2021/07/15 08:36:37;;;;;;;1999.90;999.90;;;;;;;28.45;49.56;100789.44;15738787;28;20045;-60
2021/07/15 08:44:31;;;;;;;1999.90;999.90;;;;;;;28.26;50.30;100790.38;15747061;28;20095;-60
2021/07/15 08:52:26;;;;;;;1999.90;999.90;;;;;;;27.74;51.04;100777.06;15743990;28;20048;-63
2021/07/15 09:08:16;;;;;;;1999.90;999.90;;;;;;;29.23;48.01;100806.31;15734925;28;20496;-62
2021/07/15 09:15:59;;;;;;;1999.90;999.90;;;;;;;30.26;46.45;100825.03;15744122;28;20045;-63
2021/07/15 09:32:47;;;;;;;;;;;;;;;;;;;;;
2021/07/15 09:40:44;;;;;;;1999.90;999.90;;;;;;;30.18;47.97;100821.59;15743089;28;20059;-61
2021/07/15 09:48:38;;;;;;;1999.90;999.90;;;;;;;29.41;49.53;100819.31;15742352;28;20086;-62
2021/07/15 09:56:50;;;;;;;1999.90;999.90;;;;;;;28.92;47.60;100819.63;15741469;28;20051;-62
2021/07/15 10:04:26;;;;;;;1999.90;999.90;;;;;;;29.88;48.12;100830.88;15723644;28;20045;-62
2021/07/15 10:12:48;;;;;;;1999.90;999.90;;;;;;;29.86;48.05;100819.84;15726225;28;20051;-61
2021/07/15 10:20:35;;;;;;;1999.90;999.90;;;;;;;31.21;46.73;100828.44;15722122;28;20060;-61
2021/07/15 10:28:28;;;;;;;1999.90;999.90;;;;;;;32.09;42.87;100823.06;15723455;28;20427;-61
2021/07/15 10:36:03;;;;;;;1999.90;999.90;;;;;;;32.17;41.44;100821.47;15740397;28;20455;-62
2021/07/15 10:43:46;;;;;;;1999.90;999.90;;;;;;;32.92;37.97;100841.16;15741302;28;20049;-62
2021/07/15 10:51:18;;;;;;;1999.90;999.90;;;;;;;33.95;40.17;100826.59;15740597;28;20489;-62
2021/07/15 10:59:09;;;;;;;1999.90;999.90;;;;;;;33.96;40.98;100831.09;15740862;28;20485;-63
2021/07/15 11:06:57;;;;;;;1999.90;999.90;;;;;;;32.12;41.00;100830.78;15721914;28;20470;-61
2021/07/15 11:14:39;;;;;;;1999.90;999.90;;;;;;;30.69;44.73;100832.91;15739157;28;20055;-62
2021/07/15 11:22:31;;;;;;;1999.90;999.90;;;;;;;32.97;38.16;100833.94;15705196;28;20065;-63
2021/07/15 11:30:09;;;;;;;1999.90;999.90;;;;;;;34.26;34.85;100834.09;15721569;28;20042;-63
2021/07/15 11:37:41;;;;;;;1999.90;999.90;;;;;;;33.26;35.98;100833.38;15748066;28;20123;-61
2021/07/15 11:45:14;;;;;;;1999.90;999.90;;;;;;;35.15;36.50;100826.34;15750077;28;20040;-63
2021/07/15 11:52:46;;;;;;;1999.90;999.90;;;;;;;33.26;40.52;100807.34;15731602;28;20059;-61
2021/07/15 12:00:22;;;;;;;1999.90;999.90;;;;;;;32.60;42.29;100818.75;15731258;28;20053;-62
2021/07/15 12:08:11;;;;;;;1999.90;999.90;;;;;;;34.16;38.98;100816.00;15748562;28;20735;-63
2021/07/15 12:15:48;;;;;;;1999.90;999.90;;;;;;;35.28;36.31;100813.09;15729858;28;20052;-63
2021/07/15 12:23:23;;;;;;;1999.90;999.90;;;;;;;33.06;40.31;100807.13;15748323;28;20106;-63
2021/07/15 12:30:59;;;;;;;1999.90;999.90;;;;;;;33.57;40.74;100792.59;15746969;28;20107;-63
2021/07/15 12:38:32;;;;;;;1999.90;999.90;;;;;;;32.69;40.46;100792.72;15746591;28;20051;-61
2021/07/15 12:46:10;;;;;;;1999.90;999.90;;;;;;;31.62;43.39;100779.38;15727825;28;20094;-62
2021/07/15 12:53:45;;;;;;;1999.90;999.90;;;;;;;30.96;45.25;100783.31;15745917;28;20049;-62
2021/07/15 13:01:23;;;;;;;1999.90;999.90;;;;;;;32.37;41.50;100791.34;15727977;28;20051;-62
2021/07/15 13:09:02;;;;;;;1999.90;999.90;;;;;;;32.86;37.41;100788.22;15745173;28;20098;-61
2021/07/15 13:16:41;;;;;;;1999.90;999.90;;;;;;;31.57;42.17;100777.91;15745308;28;20044;-61
2021/07/15 13:24:14;;;;;;;1999.90;999.90;;;;;;;30.85;42.08;100782.94;15744480;28;20421;-63
2021/07/15 13:31:48;;;;;;;1999.90;999.90;;;;;;;32.17;40.41;100786.03;15743145;28;20044;-63
2021/07/15 13:39:47;;;;;;;1999.90;999.90;;;;;;;31.89;41.27;100785.25;15724972;28;20105;-63
2021/07/15 13:47:26;;;;;;;1999.90;999.90;;;;;;;31.26;42.56;100783.75;15743033;28;20133;-63
2021/07/15 13:55:02;;;;;;;1999.90;999.90;;;;;;;30.88;44.19;100781.97;15724768;28;20051;-63
2021/07/15 14:02:36;;;;;;;1999.90;999.90;;;;;;;31.29;43.19;100769.22;15724263;28;20128;-63
2021/07/15 14:10:10;;;;;;;1999.90;999.90;;;;;;;32.02;42.72;100777.22;15742613;28;20497;-61
2021/07/15 14:17:56;;;;;;;1999.90;999.90;;;;;;;31.31;44.57;100774.50;15724460;28;20621;-62
2021/07/15 14:25:30;;;;;;;1999.90;999.90;;;;;;;31.44;41.84;100769.41;15742189;28;20097;-62
2021/07/15 14:33:05;;;;;;;1999.90;999.90;;;;;;;30.80;42.17;100774.88;15717565;28;20382;-63
2021/07/15 14:40:38;;;;;;;1999.90;999.90;;;;;;;30.80;42.42;100774.09;15722614;28;20113;-62
2021/07/15 14:48:12;;;;;;;1999.90;999.90;;;;;;;30.86;41.94;100773.00;15720045;28;20098;-62
2021/07/15 14:55:44;;;;;;;1999.90;999.90;;;;;;;30.87;43.53;100777.50;15739635;28;20052;-61
2021/07/15 15:03:19;;;;;;;1999.90;999.90;;;;;;;31.07;43.21;100767.66;15739016;28;20138;-61
2021/07/15 15:10:53;;;;;;;1999.90;999.90;;;;;;;31.21;46.38;100770.78;15746829;28;20055;-61
2021/07/15 15:18:27;;;;;;;1999.90;999.90;;;;;;;30.39;41.64;100776.03;15734756;28;20048;-62
2021/07/15 15:26:00;;;;;;;1999.90;999.90;;;;;;;30.45;43.54;100774.97;15733225;28;20127;-61
2021/07/15 15:33:34;;;;;;;1999.90;999.90;;;;;;;29.79;45.28;100774.06;15750716;28;20052;-62
2021/07/15 15:41:06;;;;;;;1999.90;999.90;;;;;;;29.19;48.45;100770.38;15749940;28;20044;-62
2021/07/15 15:48:40;;;;;;;1999.90;999.90;;;;;;;28.92;49.69;100750.72;15749516;28;20094;-62
2021/07/15 15:56:12;;;;;;;1999.90;999.90;;;;;;;28.57;50.78;100750.53;15748853;28;20045;-63
2021/07/15 16:03:46;;;;;;;1999.90;999.90;;;;;;;28.77;50.79;100746.66;15749314;28;20105;-62
2021/07/15 16:11:18;;;;;;;1999.90;999.90;;;;;;;28.46;50.55;100750.06;15731157;28;20175;-62
2021/07/15 16:18:51;;;;;;;1999.90;999.90;;;;;;;28.31;51.10;100748.88;15746738;28;20068;-61
2021/07/15 16:26:23;;;;;;;1999.90;999.90;;;;;;;28.05;50.21;100754.50;15747248;28;20075;-62
2021/07/15 16:33:57;;;;;;;;;;;;;;;28.27;51.26;100753.88;15715417;28;20045;-62
2021/07/15 16:41:30;;;;;;;1999.90;999.90;;;;;;;28.21;52.40;100747.06;15685309;28;19997;-62
2021/07/15 16:49:04;;;;;;;1999.90;999.90;;;;;;;28.18;52.04;100749.59;15685234;28;20163;-61
2021/07/15 16:56:36;;;;;;;1999.90;999.90;;;;;;;28.16;52.54;100754.19;15687078;28;20044;-61
2021/07/15 17:04:09;;;;;;;;;;;;;;;28.25;52.02;100762.94;15736245;28;20048;-60
2021/07/15 17:11:41;;;;;;;1999.90;999.90;;;;;;;28.02;52.14;100780.38;15745579;28;19920;-62
2021/07/15 17:19:15;;;;;;;1999.90;999.90;;;;;;;27.80;53.08;100777.31;15746156;28;20048;-61
2021/07/15 17:26:47;;;;;;;1999.90;999.90;;;;;;;28.10;53.74;100796.16;15746951;28;20044;-63
2021/07/15 17:34:20;;;;;;;;;;;;;;;28.01;51.18;100801.72;15727343;28;20044;-61
2021/07/15 17:41:53;;;;;;;1999.90;999.90;;;;;;;28.00;53.68;100806.66;15741498;28;20018;-59
2021/07/15 17:49:27;;;;;;;1999.90;999.90;;;;;;;27.93;51.52;100806.03;15739549;28;20040;-62
2021/07/15 17:57:00;;;;;;;1999.90;999.90;;;;;;;27.91;50.82;100826.56;15731779;28;20123;-64
2021/07/15 18:04:33;;;;;;;1999.90;999.90;;;;;;;27.84;55.12;100829.63;15777734;28;20147;-62
2021/07/15 18:12:07;;;;;;;1999.90;999.90;;;;;;;27.61;56.30;100833.44;15773889;28;20097;-65
2021/07/15 18:19:40;;;;;;;1999.90;999.90;;;;;;;27.43;57.57;100825.31;15736023;28;20520;-61
2021/07/15 18:27:13;;;;;;;1999.90;999.90;;;;;;;27.08;57.82;100829.81;15784949;28;20423;-58
2021/07/15 18:34:46;;;;;;;;;;;;;;;26.94;57.88;100816.59;15750226;28;20056;-59
2021/07/15 18:42:18;;;;;;;1999.90;999.90;;;;;;;26.71;59.34;100831.03;15744924;28;19924;-58
2021/07/15 18:49:52;;;;;;;1999.90;999.90;;;;;;;26.49;59.27;100824.94;15740885;28;20490;-61
2021/07/15 18:57:24;;;;;;;1999.90;999.90;;;;;;;26.32;59.64;100841.19;15736682;28;20045;-63
2021/07/15 19:04:58;;;;;;;1999.90;999.90;;;;;;;26.10;61.35;100831.41;15726224;28;20482;-65
2021/07/15 19:12:30;;;;;;;1999.90;999.90;;;;;;;25.93;61.86;100838.25;15734307;28;20145;-58
2021/07/15 19:20:04;;;;;;;;;;;;;;;25.88;61.61;100848.13;15730293;28;20101;-58
2021/07/15 19:27:37;;;;;;;1999.90;999.90;;;;;;;25.64;62.46;100858.72;15741966;28;19921;-58
2021/07/15 19:35:12;;;;;;;1999.90;999.90;;;;;;;25.60;63.70;100872.25;15721434;28;20490;-61
2021/07/15 19:42:47;;;;;;;1999.90;999.90;;;;;;;25.71;63.65;100874.97;15738939;28;20128;-58
2021/07/15 19:50:23;;;;;;;1999.90;999.90;;;;;;;25.73;63.54;100878.19;15737867;28;20048;-62
2021/07/15 19:57:56;;;;;;;1999.90;999.90;;;;;;;25.73;64.77;100881.84;15794105;28;20394;-60
2021/07/15 20:05:31;;;;;;;1999.90;999.90;;;;;;;25.71;64.65;100884.34;15812999;28;20500;-61
2021/07/15 20:13:04;;;;;;;1999.90;999.90;;;;;;;25.51;64.67;100892.78;15756960;28;20048;-60
2021/07/15 20:20:37;;;;;;;1999.90;999.90;;;;;;;25.31;65.74;100901.25;15749479;28;20049;-57
2021/07/15 20:28:11;;;;;;;1999.90;999.90;;;;;;;25.05;66.75;100902.03;15749107;28;20386;-62
2021/07/15 20:35:44;;;;;;;1999.90;999.90;;;;;;;24.77;67.40;100908.88;15748236;28;20044;-60
2021/07/15 20:43:16;;;;;;;1999.90;999.90;;;;;;;24.68;67.89;100892.25;15747169;28;20083;-59
2021/07/15 20:50:50;;;;;;;1999.90;999.90;;;;;;;24.52;68.05;100906.31;15728930;28;20036;-61
2021/07/15 20:58:22;;;;;;;1999.90;999.90;;;;;;;24.50;68.62;100922.25;15728608;28;20036;-62
2021/07/15 21:05:56;;;;;;;1999.90;999.90;;;;;;;24.36;68.92;100926.03;15746055;28;20537;-58
2021/07/15 21:13:28;;;;;;;1999.90;999.90;;;;;;;24.08;69.65;100925.06;15745700;28;20114;-63
2021/07/15 21:21:02;;;;;;;1999.90;999.90;;;;;;;24.08;69.74;100944.19;15740475;28;20571;-63
2021/07/15 21:28:34;;;;;;;1999.90;999.90;;;;;;;24.02;70.13;100946.69;15735823;28;20060;-62
2021/07/15 21:36:08;;;;;;;1999.90;999.90;;;;;;;24.00;70.31;100965.44;15731748;28;20632;-61
2021/07/15 21:43:40;;;;;;;1999.90;999.90;;;;;;;23.72;70.57;100958.72;15730094;28;20048;-61
2021/07/15 21:51:14;;;;;;;1999.90;999.90;;;;;;;23.74;70.98;100952.59;15741182;28;20028;-58
2021/07/15 21:58:46;;;;;;;1999.90;999.90;;;;;;;23.67;71.33;100964.88;15724180;28;20048;-59
2021/07/15 22:06:21;;;;;;;1999.90;999.90;;;;;;;23.71;71.29;100956.28;15723845;28;20059;-65
2021/07/15 22:13:53;;;;;;;1999.90;999.90;;;;;;;23.48;71.50;100959.66;15724011;28;20040;-59
2021/07/15 22:21:26;;;;;;;1999.90;999.90;;;;;;;23.32;72.25;100968.69;15740572;28;20076;-62
2021/07/15 22:28:59;;;;;;;1999.90;999.90;;;;;;;23.25;72.46;100957.34;15722917;28;20052;-65
2021/07/15 22:36:32;;;;;;;;;;;;;;;23.23;72.04;100962.63;15741188;28;20043;-62
2021/07/15 22:44:05;;;;;;;1999.90;999.90;;;;;;;22.95;73.06;100955.84;15740421;28;19956;-59
2021/07/15 22:59:21;;;;;;;1999.90;999.90;;;;;;;22.77;73.42;100957.91;15591317;28;20029;-63
2021/07/15 23:06:53;;;;;;;1999.90;999.90;;;;;;;22.67;73.56;100962.38;15604407;28;20478;-63
2021/07/15 23:14:26;;;;;;;1999.90;999.90;;;;;;;22.65;74.09;100979.06;15640087;28;20106;-63
2021/07/15 23:21:58;;;;;;;1999.90;999.90;;;;;;;22.56;74.08;100975.81;15639462;28;20041;-64
2021/07/15 23:29:32;;;;;;;1999.90;999.90;;;;;;;22.24;74.89;100978.69;15625556;28;20041;-63
2021/07/15 23:37:05;;;;;;;1999.90;999.90;;;;;;;22.42;74.86;100984.38;15604632;28;20048;-64
2021/07/15 23:44:38;;;;;;;1999.90;999.90;;;;;;;22.49;75.22;100992.88;15661719;28;20413;-64
2021/07/15 23:52:11;;;;;;;1999.90;999.90;;;;;;;22.62;75.11;101010.38;15653137;28;20049;-63
2021/07/15 23:59:45;;;;;;;1999.90;999.90;;;;;;;22.76;75.52;101011.13;15655060;28;20099;-64
